Vaughn, MT

6:40 PM MDT on May 29, 2015 (GMT -0600)
Helena Regional | | Change Station
CLOSE
Current Station
Airport
Location: Helena,
Elevation: 3865 ft
Nearby Weather Stations

Elev 3865 ft 46.60 °N, 111.99 °W | Updated 17 minutes ago

Clear
Clear
67 °F
Feels Like 67 °F
N
21
Wind Variable Wind from SE
Gusts 36 mph

Today
High -- | Low -- °F
--% Chance of Precip.
Yesterday
High -- | Low -- °F
Precip. -- in
5:35 AM 9:13 PM
Waxing Gibbous, 87% visible
Pressure 30.06 in
Visibility 9.0 miles
Clouds Few 900 ft
Scattered Clouds 8000 ft
Overcast 9500 ft
Dew Point 45 °F
Humidity 45%
Rainfall 0.00 in
Snow Depth Not available.
UV 1 out of 12
Pollen 7.20 out of 12
Air Quality Not available.
Flu Activity Sporadic
SPECI KHLN 300023Z 13018G31KT 9SM -TSRA FEW009 SCT080 OVC095 19/07 A3006 RMK AO2 PK WND 14031/0020 RAB21 TSB23 P0000 T01940072

More Conditions Fewer Conditions

Pressure 30.06 in
Visibility 9.0 miles
Clouds Few 900 ft
Scattered Clouds 8000 ft
Overcast 9500 ft
Dew Point 45 °F
Humidity 45%
Rainfall 0.00 in
Snow Depth Not available.
UV 1 out of 12
Pollen 7.20 out of 12
Air Quality Not available.
Flu Activity Sporadic
SPECI KHLN 300023Z 13018G31KT 9SM -TSRA FEW009 SCT080 OVC095 19/07 A3006 RMK AO2 PK WND 14031/0020 RAB21 TSB23 P0000 T01940072

More Conditions Fewer Conditions

10-Day Weather Forecast

Almanac

Astronomy

May. 29, 2015 Rise Set
Actual Time
Civil Twilight
Nautical Twilight
Astronomical Twilight
Moon
Length of Visible Light
Length of Day
Tomorrow will be .
, % of the Moon is Illuminated

Today's Extremes

State Highs State Lows

Community

WunderPhotos

Upload Photos

1,825,411 photos uploaded!

WunderBlogs® & News

Nearby

Air Quality

  Air Quality AQ Index Pollutant
Not available.

Snow Depth

Station Depth Elevation

Earthquake Activity

City Distance Mag. Time & Date
Minimum magnitude displayed is 2.5.

Coastal Water Temperatures

Place Temperature

Stations

Nearby Weather Stations

Station Location Temp. Windchill Dew Point Humidity Wind Precip. Elev Updated Type